Adams Lake, Indiana
Current Conditions -  °F | °C
As of 8:35 AM on Tuesday 21 Oct 2014 (Local Time) from KANQ Reporting Station
Overcast Overcast  
Wind Chill: 44°   Ceiling: 1300
Heat Index: 46°   Visibility: 10mi
Dew Point: 43°   Wind: 6mph
Humidity: 87%   Direction: 340°NNW
Pressure: 30.01"   Gusts: NA
Location:  41.5677°N, 85.3125°W
Report Text: KANQ 211235Z AUTO 34005KT 10SM OVC013 08/06 A3001 RMK
Loading
Personal Weather Stations






























Interactive Weather Map New forecast layout! Learn more

10-Day Weather Forecast

Advertisements
Track Severe Weather on mobile